Time;durP1;ratioP1;P1;durP2;ratioP2;P2;SDS_P1;SDS_P2;PMS_P1;PMS_P2;Temp;Humidity;BMP_temperature;BMP_pressure;BME280_temperature;BME280_humidity;BME280_pressure;Samples;Min_cycle;Max_cycle;Signal;HPM_P1;HPM_P2
2022/07/26 00:02:24;;;;;;;22.43;20.13;;;;;;;;;;5099987;28;24445;-45
2022/07/26 00:04:49;;;;;;;21.20;19.20;;;;;;;;;;5097783;27;24421;-45
2022/07/26 00:07:15;;;;;;;19.38;17.58;;;;;;;;;;5095282;28;25140;-45
2022/07/26 00:09:40;;;;;;;19.10;17.20;;;;;;;;;;5103487;28;24418;-45
2022/07/26 00:12:05;;;;;;;18.20;16.60;;;;;;;;;;5087619;28;24446;-46
2022/07/26 00:14:30;;;;;;;16.83;15.43;;;;;;;;;;5093280;27;25241;-45
2022/07/26 00:16:55;;;;;;;19.47;17.77;;;;;;;;;;5099343;27;24417;-46
2022/07/26 00:19:21;;;;;;;19.20;17.55;;;;;;;;;;5098541;28;24437;-45
2022/07/26 00:21:46;;;;;;;18.63;16.95;;;;;;;;;;5102762;28;24421;-45
2022/07/26 00:24:11;;;;;;;16.37;14.90;;;;;;;;;;5101566;28;24475;-45
2022/07/26 00:26:36;;;;;;;16.00;14.50;;;;;;;;;;5092348;28;24417;-44
2022/07/26 00:29:03;;;;;;;15.37;14.03;;;;;;;;;;5086695;27;24444;-45
2022/07/26 00:31:29;;;;;;;18.30;16.50;;;;;;;;;;5096321;28;24479;-46
2022/07/26 00:33:54;;;;;;;20.30;18.20;;;;;;;;;;5101548;28;24433;-45
2022/07/26 00:36:19;;;;;;;23.70;21.50;;;;;;;;;;5101063;28;24417;-46
2022/07/26 00:38:44;;;;;;;24.67;22.47;;;;;;;;;;5102108;27;24436;-46
2022/07/26 00:41:09;;;;;;;26.70;24.40;;;;;;;;;;5103536;28;24414;-46
2022/07/26 00:43:35;;;;;;;26.67;24.38;;;;;;;;;;5087527;28;24499;-45
2022/07/26 00:46:00;;;;;;;29.80;27.00;;;;;;;;;;5088865;28;24426;-46
2022/07/26 00:48:25;;;;;;;30.47;27.57;;;;;;;;;;5097900;28;24512;-46
2022/07/26 00:50:54;;;;;;;28.90;26.00;;;;;;;;;;5079917;28;24524;-46
2022/07/26 00:53:21;;;;;;;32.55;29.48;;;;;;;;;;5089773;28;24485;-45
2022/07/26 00:55:47;;;;;;;27.60;25.00;;;;;;;;;;5086554;28;24421;-46
2022/07/26 00:58:12;;;;;;;28.42;25.48;;;;;;;;;;5098134;28;24785;-46
2022/07/26 01:00:38;;;;;;;26.60;24.20;;;;;;;;;;5089325;28;24932;-46
2022/07/26 01:03:03;;;;;;;25.30;22.70;;;;;;;;;;5099168;28;24434;-46
2022/07/26 01:05:28;;;;;;;22.60;20.43;;;;;;;;;;5101955;28;24986;-46
2022/07/26 01:07:53;;;;;;;22.95;20.55;;;;;;;;;;5092609;28;24440;-47
2022/07/26 01:10:19;;;;;;;22.30;20.30;;;;;;;;;;5102873;28;24529;-46
2022/07/26 01:12:44;;;;;;;26.27;23.77;;;;;;;;;;5096270;28;24421;-46
2022/07/26 01:15:10;;;;;;;34.55;30.77;;;;;;;;;;5089576;28;24446;-46
2022/07/26 01:17:36;;;;;;;45.50;40.90;;;;;;;;;;5088909;28;24464;-45
2022/07/26 01:20:01;;;;;;;47.20;42.72;;;;;;;;;;5089383;28;24462;-45
2022/07/26 01:22:26;;;;;;;46.70;42.20;;;;;;;;;;5090128;28;24483;-46
2022/07/26 01:24:51;;;;;;;51.13;46.13;;;;;;;;;;5087600;28;25023;-45
2022/07/26 01:27:17;;;;;;;62.17;55.90;;;;;;;;;;5097205;28;24502;-45
2022/07/26 01:29:42;;;;;;;73.73;66.40;;;;;;;;;;5090509;28;24767;-46
2022/07/26 01:32:07;;;;;;;75.30;68.03;;;;;;;;;;5099656;28;24992;-46
2022/07/26 01:34:32;;;;;;;69.90;62.70;;;;;;;;;;5098804;28;24425;-45
2022/07/26 01:36:57;;;;;;;69.28;62.17;;;;;;;;;;5100266;28;24437;-45
2022/07/26 01:39:23;;;;;;;65.47;58.93;;;;;;;;;;5092990;28;24484;-45
2022/07/26 01:41:48;;;;;;;53.70;48.53;;;;;;;;;;5098252;28;24425;-44
2022/07/26 01:44:13;;;;;;;45.07;40.33;;;;;;;;;;5095457;28;24429;-45
2022/07/26 01:46:38;;;;;;;36.97;33.47;;;;;;;;;;5091698;28;24434;-46
2022/07/26 01:49:03;;;;;;;34.60;31.10;;;;;;;;;;5105871;28;24499;-45
2022/07/26 01:51:29;;;;;;;32.20;29.50;;;;;;;;;;5095854;27;24438;-45
2022/07/26 01:53:54;;;;;;;28.40;26.00;;;;;;;;;;5096201;27;24515;-45
2022/07/26 01:56:19;;;;;;;28.10;25.80;;;;;;;;;;5094182;28;24457;-44
2022/07/26 01:58:44;;;;;;;28.17;25.77;;;;;;;;;;5099832;28;24461;-44
2022/07/26 02:01:10;;;;;;;28.05;25.55;;;;;;;;;;5095319;28;24980;-44
2022/07/26 02:03:35;;;;;;;25.30;23.10;;;;;;;;;;5101777;28;24502;-45
2022/07/26 02:06:00;;;;;;;27.00;24.53;;;;;;;;;;5104963;27;24433;-45
2022/07/26 02:08:26;;;;;;;26.27;23.92;;;;;;;;;;5094790;28;24426;-46
2022/07/26 02:11:00;;;;;;;28.50;26.10;;;;;;;;;;5092217;28;24437;-45
2022/07/26 02:13:33;;;;;;;29.50;27.00;;;;;;;;;;5100904;27;24806;-46
2022/07/26 02:15:58;;;;;;;28.92;26.33;;;;;;;;;;5086229;27;24894;-46
2022/07/26 02:18:24;;;;;;;28.87;26.23;;;;;;;;;;5097211;27;24409;-46
2022/07/26 02:20:49;;;;;;;30.80;27.90;;;;;;;;;;5104823;28;25099;-45
2022/07/26 02:23:14;;;;;;;33.42;30.42;;;;;;;;;;5092733;28;24513;-45
2022/07/26 02:25:40;;;;;;;33.53;30.42;;;;;;;;;;5099148;28;24783;-46
2022/07/26 02:28:05;;;;;;;37.53;34.13;;;;;;;;;;5095980;28;24434;-45
2022/07/26 02:30:30;;;;;;;30.35;27.45;;;;;;;;;;5093166;27;24417;-46
2022/07/26 02:32:55;;;;;;;29.90;27.10;;;;;;;;;;5098791;28;24430;-45
2022/07/26 02:35:20;;;;;;;29.30;26.63;;;;;;;;;;5103416;27;24417;-45
2022/07/26 02:37:46;;;;;;;25.80;23.33;;;;;;;;;;5100193;28;24471;-46
2022/07/26 02:40:11;;;;;;;23.23;21.13;;;;;;;;;;5106631;28;24448;-45
2022/07/26 02:42:36;;;;;;;23.53;21.33;;;;;;;;;;5096546;28;24422;-47
2022/07/26 02:45:01;;;;;;;22.50;20.50;;;;;;;;;;5104664;27;24788;-46
2022/07/26 02:47:26;;;;;;;24.67;22.47;;;;;;;;;;5102837;27;24839;-45
2022/07/26 02:49:51;;;;;;;23.20;21.00;;;;;;;;;;5097606;28;24437;-45
2022/07/26 02:52:17;;;;;;;23.20;21.10;;;;;;;;;;5093337;28;24500;-45
2022/07/26 02:54:42;;;;;;;24.50;22.20;;;;;;;;;;5094759;28;24433;-45
2022/07/26 02:57:07;;;;;;;25.50;22.90;;;;;;;;;;5098399;28;24509;-47
2022/07/26 02:59:32;;;;;;;27.17;24.60;;;;;;;;;;5098753;28;24437;-44
2022/07/26 03:01:57;;;;;;;27.20;24.30;;;;;;;;;;5100537;28;24834;-45
2022/07/26 03:04:23;;;;;;;24.80;22.40;;;;;;;;;;5099160;28;24846;-44
2022/07/26 03:06:48;;;;;;;24.20;21.60;;;;;;;;;;5096319;28;24959;-45
2022/07/26 03:09:13;;;;;;;23.48;21.00;;;;;;;;;;5093452;28;25002;-45
2022/07/26 03:11:38;;;;;;;26.30;23.90;;;;;;;;;;5089890;28;25099;-46
2022/07/26 03:14:04;;;;;;;30.17;27.23;;;;;;;;;;5097089;28;24436;-46
2022/07/26 03:16:29;;;;;;;35.17;31.67;;;;;;;;;;5099793;28;24466;-46
2022/07/26 03:18:54;;;;;;;30.90;27.80;;;;;;;;;;5099029;28;24943;-46
2022/07/26 03:21:19;;;;;;;32.45;29.42;;;;;;;;;;5090722;28;24427;-47
2022/07/26 03:23:44;;;;;;;28.30;25.70;;;;;;;;;;5104726;28;24433;-46
2022/07/26 03:26:09;;;;;;;26.05;23.42;;;;;;;;;;5095423;28;25994;-45
2022/07/26 03:28:35;;;;;;;24.40;21.97;;;;;;;;;;5097215;28;24549;-46
2022/07/26 03:31:00;;;;;;;24.75;22.15;;;;;;;;;;5100417;28;24808;-45
2022/07/26 03:33:25;;;;;;;25.70;23.20;;;;;;;;;;5091607;28;24526;-48
2022/07/26 03:35:50;;;;;;;25.20;22.60;;;;;;;;;;5094981;28;24517;-45
2022/07/26 03:38:15;;;;;;;23.13;20.83;;;;;;;;;;5104812;28;24494;-46
2022/07/26 03:40:40;;;;;;;25.60;22.98;;;;;;;;;;5101199;28;24510;-46
2022/07/26 03:43:05;;;;;;;24.95;22.45;;;;;;;;;;5100161;28;24464;-46
2022/07/26 03:45:31;;;;;;;25.33;22.80;;;;;;;;;;5088606;28;24769;-45
2022/07/26 03:47:56;;;;;;;25.40;22.80;;;;;;;;;;5105087;27;24525;-46
2022/07/26 03:50:21;;;;;;;27.33;24.63;;;;;;;;;;5102468;28;24445;-45
2022/07/26 03:52:46;;;;;;;26.83;24.23;;;;;;;;;;5095259;28;24529;-45
2022/07/26 03:57:55;;;;;;;24.23;21.63;;;;;;;;;;5099429;28;24413;-46
2022/07/26 04:00:20;;;;;;;23.23;20.90;;;;;;;;;;5095731;28;24434;-45
2022/07/26 04:02:46;;;;;;;23.25;20.95;;;;;;;;;;5119870;27;24494;-46
2022/07/26 04:05:11;;;;;;;22.02;19.92;;;;;;;;;;5103613;28;24423;-46
2022/07/26 04:07:42;;;;;;;22.80;19.02;;;;;;;;;;5090872;28;24434;-46
2022/07/26 04:10:08;;;;;;;20.67;18.58;;;;;;;;;;5097335;28;24421;-44
2022/07/26 04:12:33;;;;;;;20.77;18.67;;;;;;;;;;5090964;28;24444;-45
2022/07/26 04:14:58;;;;;;;19.25;17.15;;;;;;;;;;5091613;28;24998;-44
2022/07/26 04:17:23;;;;;;;17.67;15.97;;;;;;;;;;5095562;28;24989;-46
2022/07/26 04:19:48;;;;;;;15.30;14.00;;;;;;;;;;5104702;28;24425;-45
2022/07/26 04:22:14;;;;;;;13.20;12.00;;;;;;;;;;5104430;28;24428;-46
2022/07/26 04:24:39;;;;;;;12.77;11.57;;;;;;;;;;5104467;28;24828;-45
2022/07/26 04:27:04;;;;;;;12.70;11.40;;;;;;;;;;5093587;28;24458;-45
2022/07/26 04:29:29;;;;;;;11.70;10.60;;;;;;;;;;5089384;28;24866;-45
2022/07/26 04:31:54;;;;;;;11.18;10.00;;;;;;;;;;5088952;28;24526;-45
2022/07/26 04:34:19;;;;;;;12.27;10.50;;;;;;;;;;5090830;28;24432;-46
2022/07/26 04:36:44;;;;;;;12.02;10.82;;;;;;;;;;5095018;28;24816;-46
2022/07/26 04:39:10;;;;;;;10.80;9.70;;;;;;;;;;5099941;28;24417;-44
2022/07/26 04:41:35;;;;;;;9.27;8.00;;;;;;;;;;5097684;28;24430;-46
2022/07/26 04:44:00;;;;;;;8.63;7.83;;;;;;;;;;5098559;28;24486;-45
2022/07/26 04:46:25;;;;;;;7.60;6.90;;;;;;;;;;5097690;28;24465;-45
2022/07/26 04:48:50;;;;;;;9.60;8.15;;;;;;;;;;5088886;28;25078;-45
2022/07/26 04:51:15;;;;;;;9.25;8.40;;;;;;;;;;5097079;28;24445;-44
2022/07/26 04:53:40;;;;;;;9.07;8.20;;;;;;;;;;5104634;28;24581;-45
2022/07/26 04:56:06;;;;;;;8.10;7.30;;;;;;;;;;5084735;28;24434;-45
2022/07/26 04:58:31;;;;;;;7.80;7.10;;;;;;;;;;5095627;28;24818;-46
2022/07/26 05:00:56;;;;;;;7.53;6.45;;;;;;;;;;5092518;28;24426;-46
2022/07/26 05:03:23;;;;;;;7.10;6.50;;;;;;;;;;5091829;28;24522;-46
2022/07/26 05:05:48;;;;;;;6.27;5.50;;;;;;;;;;5088367;28;24428;-45
2022/07/26 05:08:15;;;;;;;7.10;6.50;;;;;;;;;;5092227;28;24512;-45
2022/07/26 05:10:40;;;;;;;7.07;6.30;;;;;;;;;;5093383;28;24422;-45
2022/07/26 05:13:06;;;;;;;7.17;6.53;;;;;;;;;;5100944;28;24437;-45
2022/07/26 05:15:32;;;;;;;6.72;6.03;;;;;;;;;;5088461;27;24418;-45
2022/07/26 05:18:00;;;;;;;6.80;6.10;;;;;;;;;;5102103;28;24796;-44
2022/07/26 05:20:26;;;;;;;5.90;5.40;;;;;;;;;;5103554;28;24429;-44
2022/07/26 05:22:51;;;;;;;5.43;4.90;;;;;;;;;;5110379;28;24413;-45
2022/07/26 05:25:16;;;;;;;5.90;5.30;;;;;;;;;;5105919;28;24594;-45
2022/07/26 05:27:41;;;;;;;7.95;6.40;;;;;;;;;;5103194;28;24483;-44
2022/07/26 05:30:07;;;;;;;8.20;6.30;;;;;;;;;;5095572;27;24578;-45
2022/07/26 05:32:32;;;;;;;5.17;4.80;;;;;;;;;;5097796;27;24769;-45
2022/07/26 05:34:57;;;;;;;5.70;5.10;;;;;;;;;;5100383;28;24456;-45
2022/07/26 05:37:23;;;;;;;6.55;5.95;;;;;;;;;;5107490;28;24417;-45
2022/07/26 05:39:48;;;;;;;6.30;5.70;;;;;;;;;;5102675;28;24432;-45
2022/07/26 05:42:13;;;;;;;6.60;6.00;;;;;;;;;;5097599;28;24422;-46
2022/07/26 05:44:38;;;;;;;6.30;5.70;;;;;;;;;;5105772;27;26529;-45
2022/07/26 05:47:03;;;;;;;5.70;5.20;;;;;;;;;;5099464;28;24518;-45
2022/07/26 05:49:29;;;;;;;5.85;5.30;;;;;;;;;;5097044;28;24486;-44
2022/07/26 05:51:54;;;;;;;5.83;5.33;;;;;;;;;;5102886;28;24436;-45
2022/07/26 05:54:20;;;;;;;5.40;5.00;;;;;;;;;;5090444;27;24972;-45
2022/07/26 05:56:45;;;;;;;6.40;5.60;;;;;;;;;;5095368;28;24426;-46
2022/07/26 05:59:10;;;;;;;4.90;4.50;;;;;;;;;;5102113;27;24424;-45
2022/07/26 06:01:35;;;;;;;5.85;5.35;;;;;;;;;;5085588;28;24808;-45
2022/07/26 06:04:00;;;;;;;6.57;5.97;;;;;;;;;;5094125;27;25105;-45
2022/07/26 06:06:26;;;;;;;5.60;5.20;;;;;;;;;;5099865;27;24433;-46
2022/07/26 06:08:51;;;;;;;6.00;5.50;;;;;;;;;;5087134;27;24434;-45
2022/07/26 06:11:16;;;;;;;6.10;5.60;;;;;;;;;;5092891;28;25479;-45
2022/07/26 06:13:41;;;;;;;5.87;5.17;;;;;;;;;;5093066;28;24432;-45
2022/07/26 06:16:07;;;;;;;6.13;4.80;;;;;;;;;;5090726;28;25359;-46
2022/07/26 06:18:32;;;;;;;5.73;5.13;;;;;;;;;;5099673;28;25062;-45
2022/07/26 06:20:57;;;;;;;5.60;5.10;;;;;;;;;;5093583;28;24788;-46
2022/07/26 06:23:23;;;;;;;5.37;4.80;;;;;;;;;;5097559;28;25039;-45
2022/07/26 06:25:48;;;;;;;5.43;4.93;;;;;;;;;;5093329;27;24417;-45
2022/07/26 06:28:13;;;;;;;5.57;4.97;;;;;;;;;;5095975;28;24900;-47
2022/07/26 06:30:38;;;;;;;4.63;3.88;;;;;;;;;;5088103;28;24830;-46
2022/07/26 06:33:03;;;;;;;5.27;4.17;;;;;;;;;;5094458;28;24422;-46
2022/07/26 06:35:30;;;;;;;5.15;4.00;;;;;;;;;;5110004;27;24409;-46
2022/07/26 06:37:56;;;;;;;3.80;3.50;;;;;;;;;;5110569;27;24856;-46
2022/07/26 06:40:21;;;;;;;4.70;3.40;;;;;;;;;;5105501;28;24413;-46
2022/07/26 06:42:47;;;;;;;5.22;3.80;;;;;;;;;;5102730;28;24825;-46
2022/07/26 06:45:12;;;;;;;4.73;3.60;;;;;;;;;;5095803;28;25570;-46
2022/07/26 06:47:37;;;;;;;4.05;3.45;;;;;;;;;;5094640;28;24426;-46
2022/07/26 06:50:02;;;;;;;4.57;3.40;;;;;;;;;;5104328;28;24576;-46
2022/07/26 06:52:27;;;;;;;4.20;3.40;;;;;;;;;;5105363;28;24452;-46
2022/07/26 06:54:53;;;;;;;6.07;3.20;;;;;;;;;;5099841;28;24963;-45
2022/07/26 06:57:18;;;;;;;3.73;3.33;;;;;;;;;;5101695;28;24421;-45
2022/07/26 06:59:43;;;;;;;5.10;3.10;;;;;;;;;;5102887;28;24482;-46
2022/07/26 07:02:08;;;;;;;5.10;3.70;;;;;;;;;;5084897;28;24434;-46
2022/07/26 07:04:33;;;;;;;4.63;3.13;;;;;;;;;;5091903;28;24418;-45
2022/07/26 07:07:03;;;;;;;6.83;2.87;;;;;;;;;;5100521;28;24440;-46
2022/07/26 07:09:29;;;;;;;3.70;3.10;;;;;;;;;;5091238;28;24429;-46
2022/07/26 07:11:54;;;;;;;3.10;2.60;;;;;;;;;;5097808;28;24581;-46
2022/07/26 07:14:19;;;;;;;2.87;2.67;;;;;;;;;;5084454;28;24417;-46
2022/07/26 07:16:44;;;;;;;2.67;2.47;;;;;;;;;;5093967;28;24408;-46
2022/07/26 07:19:10;;;;;;;3.00;2.50;;;;;;;;;;5103231;28;24421;-46
2022/07/26 07:21:35;;;;;;;2.60;2.37;;;;;;;;;;5105589;27;24416;-45
2022/07/26 07:24:00;;;;;;;2.92;2.67;;;;;;;;;;5112725;27;24421;-46
2022/07/26 07:26:25;;;;;;;4.27;2.70;;;;;;;;;;5099325;28;24505;-47
2022/07/26 07:28:50;;;;;;;3.30;2.20;;;;;;;;;;5104099;27;24425;-47
2022/07/26 07:31:16;;;;;;;3.00;2.40;;;;;;;;;;5095141;27;24513;-46
2022/07/26 07:33:41;;;;;;;6.20;2.47;;;;;;;;;;5097523;28;24432;-46
2022/07/26 07:36:06;;;;;;;3.28;2.00;;;;;;;;;;5096721;28;24983;-46
2022/07/26 07:38:31;;;;;;;3.28;2.33;;;;;;;;;;5096135;28;24429;-46
2022/07/26 07:40:56;;;;;;;2.80;2.00;;;;;;;;;;5096522;28;25083;-46
2022/07/26 07:43:21;;;;;;;3.30;2.05;;;;;;;;;;5104993;27;24414;-45
2022/07/26 07:45:47;;;;;;;3.00;2.07;;;;;;;;;;5107685;27;24470;-47
2022/07/26 07:48:12;;;;;;;2.20;2.00;;;;;;;;;;5100233;28;24784;-44
2022/07/26 07:50:37;;;;;;;3.87;2.20;;;;;;;;;;5094753;28;24441;-46
2022/07/26 07:53:02;;;;;;;4.50;2.20;;;;;;;;;;5100092;28;24416;-46
2022/07/26 07:55:28;;;;;;;3.83;2.40;;;;;;;;;;5096720;28;24425;-45
2022/07/26 07:57:53;;;;;;;3.37;2.33;;;;;;;;;;5096380;28;24468;-46
2022/07/26 08:00:18;;;;;;;2.93;2.30;;;;;;;;;;5091493;28;24548;-46
2022/07/26 08:02:44;;;;;;;2.37;2.17;;;;;;;;;;5099391;27;24461;-47
2022/07/26 08:05:09;;;;;;;5.45;2.10;;;;;;;;;;5098427;27;24430;-46
2022/07/26 08:07:35;;;;;;;3.50;1.93;;;;;;;;;;5100693;28;24429;-46
2022/07/26 08:10:00;;;;;;;3.20;1.87;;;;;;;;;;5099407;27;24516;-46
2022/07/26 08:12:25;;;;;;;3.00;2.03;;;;;;;;;;5090060;28;24425;-46
2022/07/26 08:14:50;;;;;;;4.30;1.90;;;;;;;;;;5104700;27;24440;-47
2022/07/26 08:17:15;;;;;;;4.05;1.92;;;;;;;;;;5097507;28;24476;-46
2022/07/26 08:19:41;;;;;;;4.20;2.10;;;;;;;;;;5096793;28;24417;-48
2022/07/26 08:22:07;;;;;;;5.43;2.20;;;;;;;;;;5094157;28;24533;-46
2022/07/26 08:24:32;;;;;;;3.03;2.00;;;;;;;;;;5099068;27;24418;-46
2022/07/26 08:26:57;;;;;;;3.67;2.30;;;;;;;;;;5091048;28;24856;-46
2022/07/26 08:29:23;;;;;;;4.00;2.20;;;;;;;;;;5089205;28;24453;-46
2022/07/26 08:31:49;;;;;;;3.20;2.00;;;;;;;;;;5086599;28;24505;-48
2022/07/26 08:34:14;;;;;;;3.63;1.95;;;;;;;;;;5093616;28;24452;-46
2022/07/26 08:36:39;;;;;;;2.83;1.85;;;;;;;;;;5106603;28;24537;-46
2022/07/26 08:39:04;;;;;;;3.40;2.00;;;;;;;;;;5096000;28;24436;-46
2022/07/26 08:41:29;;;;;;;3.23;1.80;;;;;;;;;;5107409;28;24547;-46
2022/07/26 08:44:02;;;;;;;2.97;1.90;;;;;;;;;;5101157;28;24509;-47
2022/07/26 08:46:28;;;;;;;2.25;1.80;;;;;;;;;;5086966;28;24421;-48
2022/07/26 08:48:53;;;;;;;2.87;2.20;;;;;;;;;;5102863;28;24438;-47
2022/07/26 08:51:21;;;;;;;3.83;1.88;;;;;;;;;;5100151;28;24987;-47
2022/07/26 08:53:46;;;;;;;3.03;2.00;;;;;;;;;;5107117;27;24508;-46
2022/07/26 08:56:11;;;;;;;3.60;2.00;;;;;;;;;;5116349;28;24503;-46
2022/07/26 08:58:39;;;;;;;3.97;2.20;;;;;;;;;;5125162;27;24393;-46
2022/07/26 09:01:04;;;;;;;3.10;2.20;;;;;;;;;;5093773;28;24970;-46
2022/07/26 09:03:30;;;;;;;3.90;2.65;;;;;;;;;;5103569;28;25051;-46
2022/07/26 09:05:59;;;;;;;2.80;2.60;;;;;;;;;;5089894;28;24422;-46
2022/07/26 09:08:26;;;;;;;3.90;2.50;;;;;;;;;;5092938;28;24788;-47
2022/07/26 09:10:51;;;;;;;3.15;2.78;;;;;;;;;;5095092;27;24466;-48
2022/07/26 09:13:16;;;;;;;2.50;2.30;;;;;;;;;;5093877;28;24471;-46
2022/07/26 09:15:41;;;;;;;3.58;2.60;;;;;;;;;;5093092;28;24482;-46
2022/07/26 09:18:23;;;;;;;4.40;2.40;;;;;;;;;;5103976;28;24437;-47
2022/07/26 09:20:48;;;;;;;3.22;2.50;;;;;;;;;;5084525;28;24417;-46
2022/07/26 09:23:15;;;;;;;3.00;2.60;;;;;;;;;;5101809;28;24425;-47
2022/07/26 09:25:41;;;;;;;2.30;2.10;;;;;;;;;;5104468;28;24418;-46
2022/07/26 09:28:23;;;;;;;2.90;2.20;;;;;;;;;;5099522;28;24537;-46
2022/07/26 09:30:52;;;;;;;2.20;2.03;;;;;;;;;;5094530;28;24413;-46
2022/07/26 09:33:17;;;;;;;3.20;2.40;;;;;;;;;;5104847;28;24787;-47
2022/07/26 09:35:58;;;;;;;2.40;2.20;;;;;;;;;;5107419;28;25063;-46
2022/07/26 09:38:23;;;;;;;2.20;2.00;;;;;;;;;;5100359;28;24437;-46
2022/07/26 09:40:48;;;;;;;4.97;2.38;;;;;;;;;;5097826;28;24953;-46
2022/07/26 09:43:15;;;;;;;2.20;2.00;;;;;;;;;;5098731;28;24432;-46
2022/07/26 09:45:40;;;;;;;2.40;2.10;;;;;;;;;;5097980;28;24417;-46
2022/07/26 09:48:09;;;;;;;3.63;2.50;;;;;;;;;;5105783;28;24780;-46
2022/07/26 09:50:34;;;;;;;2.00;1.90;;;;;;;;;;5101617;28;24796;-47
2022/07/26 09:53:02;;;;;;;2.30;2.10;;;;;;;;;;5090227;28;25065;-46
2022/07/26 09:55:27;;;;;;;2.40;2.20;;;;;;;;;;5097122;28;26027;-46
2022/07/26 09:57:52;;;;;;;2.10;1.90;;;;;;;;;;5100716;28;25070;-45
2022/07/26 10:00:18;;;;;;;4.50;2.40;;;;;;;;;;5101259;27;24414;-47
2022/07/26 10:02:43;;;;;;;2.77;2.10;;;;;;;;;;5101937;28;24410;-48
2022/07/26 10:05:08;;;;;;;2.10;1.90;;;;;;;;;;5089316;28;24847;-45
2022/07/26 10:07:33;;;;;;;2.20;2.00;;;;;;;;;;5089291;28;24830;-45
2022/07/26 10:10:05;;;;;;;2.00;1.90;;;;;;;;;;5089060;28;24788;-45
2022/07/26 10:12:31;;;;;;;2.85;1.80;;;;;;;;;;5102606;28;24461;-47
2022/07/26 10:14:56;;;;;;;2.70;2.20;;;;;;;;;;5108127;28;24808;-46
2022/07/26 10:17:24;;;;;;;2.40;2.10;;;;;;;;;;5099585;27;25011;-47
2022/07/26 10:19:49;;;;;;;2.63;2.20;;;;;;;;;;5088207;28;24781;-47
2022/07/26 10:22:23;;;;;;;2.87;2.27;;;;;;;;;;5089027;28;24405;-46
2022/07/26 10:24:49;;;;;;;2.10;1.90;;;;;;;;;;5092973;28;24512;-46
2022/07/26 10:27:33;;;;;;;2.53;2.20;;;;;;;;;;5099846;28;25042;-47
2022/07/26 10:30:16;;;;;;;2.72;2.30;;;;;;;;;;5101408;28;24556;-46
2022/07/26 10:32:55;;;;;;;2.45;1.83;;;;;;;;;;5105527;28;24424;-46
2022/07/26 10:35:33;;;;;;;2.90;1.90;;;;;;;;;;5107307;27;24558;-46
2022/07/26 10:37:59;;;;;;;3.15;2.00;;;;;;;;;;5099080;28;24648;-46
2022/07/26 10:40:28;;;;;;;2.50;2.20;;;;;;;;;;5101803;28;24470;-47
2022/07/26 10:43:05;;;;;;;2.20;2.00;;;;;;;;;;5108585;28;24406;-46
2022/07/26 10:45:30;;;;;;;2.13;1.95;;;;;;;;;;5105004;28;24447;-45
2022/07/26 10:48:19;;;;;;;2.80;2.00;;;;;;;;;;5103898;27;24429;-45
2022/07/26 10:50:45;;;;;;;1.60;1.50;;;;;;;;;;5098184;27;24532;-46
2022/07/26 10:53:15;;;;;;;1.88;1.70;;;;;;;;;;5097341;28;24417;-46
2022/07/26 10:55:45;;;;;;;1.83;1.73;;;;;;;;;;5085994;28;24418;-45
2022/07/26 10:58:10;;;;;;;2.30;1.80;;;;;;;;;;5086647;28;24788;-46
2022/07/26 11:00:35;;;;;;;2.00;1.80;;;;;;;;;;5094448;28;25276;-45
2022/07/26 11:03:00;;;;;;;2.85;1.90;;;;;;;;;;5090182;27;24425;-45
2022/07/26 11:05:30;;;;;;;2.60;1.80;;;;;;;;;;5101494;28;24783;-47
2022/07/26 11:07:55;;;;;;;1.80;1.70;;;;;;;;;;5104939;28;24435;-47
2022/07/26 11:10:21;;;;;;;1.70;1.60;;;;;;;;;;5102040;28;24512;-47
2022/07/26 11:12:46;;;;;;;2.42;1.80;;;;;;;;;;5098453;28;24414;-46
2022/07/26 11:15:13;;;;;;;3.08;2.70;;;;;;;;;;5105263;28;24416;-47
2022/07/26 11:17:38;;;;;;;1.90;1.80;;;;;;;;;;5096962;28;24976;-46
2022/07/26 11:20:03;;;;;;;2.00;1.77;;;;;;;;;;5102628;28;24443;-46
2022/07/26 11:22:32;;;;;;;2.00;1.60;;;;;;;;;;5091924;28;24956;-46
2022/07/26 11:24:57;;;;;;;2.47;1.90;;;;;;;;;;5104704;27;25053;-45
2022/07/26 11:27:22;;;;;;;2.10;1.80;;;;;;;;;;5102498;28;24433;-46
2022/07/26 11:29:47;;;;;;;2.20;2.00;;;;;;;;;;5103219;28;24470;-45
2022/07/26 11:32:19;;;;;;;2.15;1.70;;;;;;;;;;5102033;28;25038;-46
2022/07/26 11:34:45;;;;;;;1.40;1.30;;;;;;;;;;5104164;28;24404;-45
2022/07/26 11:37:11;;;;;;;1.40;1.30;;;;;;;;;;5100588;28;24428;-46
2022/07/26 11:39:36;;;;;;;3.00;1.60;;;;;;;;;;5103851;28;24902;-46
2022/07/26 11:42:03;;;;;;;1.88;1.60;;;;;;;;;;5091377;28;24429;-45
2022/07/26 11:44:28;;;;;;;1.85;1.52;;;;;;;;;;5084106;28;24497;-45
2022/07/26 11:46:54;;;;;;;2.87;2.13;;;;;;;;;;5096097;28;24971;-45
2022/07/26 11:49:23;;;;;;;3.50;2.03;;;;;;;;;;5099560;28;24442;-45
2022/07/26 11:51:49;;;;;;;1.90;1.70;;;;;;;;;;5100578;27;24501;-46
2022/07/26 11:54:14;;;;;;;2.10;1.90;;;;;;;;;;5104056;28;24501;-46
2022/07/26 11:56:48;;;;;;;3.43;1.80;;;;;;;;;;5103826;28;24420;-45
2022/07/26 11:59:13;;;;;;;2.00;1.80;;;;;;;;;;5103719;28;24461;-45
2022/07/26 12:01:38;;;;;;;1.70;1.60;;;;;;;;;;5102297;28;24460;-46
2022/07/26 12:04:03;;;;;;;2.43;1.80;;;;;;;;;;5096769;28;24788;-46
2022/07/26 12:06:36;;;;;;;1.70;1.60;;;;;;;;;;5095877;28;24505;-46
2022/07/26 12:09:02;;;;;;;2.30;1.90;;;;;;;;;;5084844;28;24430;-46
2022/07/26 12:11:36;;;;;;;1.60;1.50;;;;;;;;;;5089965;28;24416;-45
2022/07/26 12:14:02;;;;;;;2.80;1.50;;;;;;;;;;5088609;28;24422;-46
2022/07/26 12:16:44;;;;;;;2.10;1.60;;;;;;;;;;5084996;28;24809;-46
2022/07/26 12:19:15;;;;;;;1.90;1.80;;;;;;;;;;5100344;28;24428;-46
2022/07/26 12:21:47;;;;;;;2.58;1.77;;;;;;;;;;5096457;28;24465;-45
2022/07/26 12:24:32;;;;;;;2.00;1.80;;;;;;;;;;5096524;28;24958;-46
2022/07/26 12:27:07;;;;;;;3.80;2.00;;;;;;;;;;5099803;28;25090;-46
2022/07/26 12:29:35;;;;;;;2.85;1.80;;;;;;;;;;5101894;28;24461;-46
2022/07/26 12:32:07;;;;;;;3.78;2.05;;;;;;;;;;5101408;28;24475;-45
2022/07/26 12:34:33;;;;;;;2.65;1.80;;;;;;;;;;5089018;28;24422;-45
2022/07/26 12:37:05;;;;;;;2.22;1.60;;;;;;;;;;5094108;28;24420;-45
2022/07/26 12:39:31;;;;;;;1.52;1.42;;;;;;;;;;5106295;28;24823;-44
2022/07/26 12:41:56;;;;;;;2.95;1.63;;;;;;;;;;5096869;28;24429;-45
2022/07/26 12:44:22;;;;;;;1.90;1.70;;;;;;;;;;5105213;28;24874;-45
2022/07/26 12:46:47;;;;;;;4.70;1.60;;;;;;;;;;5093421;28;24453;-46
2022/07/26 12:49:12;;;;;;;1.70;1.40;;;;;;;;;;5090216;28;24790;-45
2022/07/26 12:51:37;;;;;;;2.10;1.30;;;;;;;;;;5086372;28;24407;-46
2022/07/26 12:54:05;;;;;;;4.00;1.50;;;;;;;;;;5093174;28;24564;-45
2022/07/26 12:56:30;;;;;;;1.85;1.55;;;;;;;;;;5095830;28;24402;-46
2022/07/26 12:58:59;;;;;;;1.33;1.23;;;;;;;;;;5085636;28;24393;-46
2022/07/26 13:01:25;;;;;;;2.47;1.35;;;;;;;;;;5086556;28;24441;-46
2022/07/26 13:03:50;;;;;;;3.42;1.70;;;;;;;;;;5085893;28;24394;-47
2022/07/26 13:06:15;;;;;;;3.30;1.70;;;;;;;;;;5086405;28;24425;-47
2022/07/26 13:08:40;;;;;;;1.50;1.40;;;;;;;;;;5085392;28;24444;-47
2022/07/26 13:11:05;;;;;;;2.65;1.50;;;;;;;;;;5104851;28;25040;-46
2022/07/26 13:13:31;;;;;;;2.00;1.40;;;;;;;;;;5104768;28;24418;-46
2022/07/26 13:15:56;;;;;;;1.70;1.30;;;;;;;;;;5099357;28;24544;-46
2022/07/26 13:18:21;;;;;;;1.33;1.20;;;;;;;;;;5098018;28;24499;-46
2022/07/26 13:20:46;;;;;;;1.40;1.30;;;;;;;;;;5106716;28;24390;-46
2022/07/26 13:23:11;;;;;;;3.20;1.60;;;;;;;;;;5106327;28;24447;-45
2022/07/26 13:25:37;;;;;;;1.83;1.70;;;;;;;;;;5106788;28;24477;-45
2022/07/26 13:28:02;;;;;;;1.90;1.70;;;;;;;;;;5097502;28;24841;-46
2022/07/26 13:30:27;;;;;;;2.10;1.90;;;;;;;;;;5086461;28;24437;-46
2022/07/26 13:32:52;;;;;;;1.85;1.58;;;;;;;;;;5087748;28;24432;-46
2022/07/26 13:35:17;;;;;;;1.90;1.80;;;;;;;;;;5088087;28;24453;-46
2022/07/26 13:37:42;;;;;;;1.80;1.70;;;;;;;;;;5108841;28;24476;-47
2022/07/26 13:40:08;;;;;;;3.20;2.10;;;;;;;;;;5107984;28;24400;-46
2022/07/26 13:42:33;;;;;;;2.30;2.10;;;;;;;;;;5089962;28;25032;-47
2022/07/26 13:44:58;;;;;;;2.40;1.80;;;;;;;;;;5089817;28;24394;-46
2022/07/26 13:47:23;;;;;;;2.22;2.00;;;;;;;;;;5090916;28;24528;-45
2022/07/26 13:49:48;;;;;;;2.20;1.80;;;;;;;;;;5089892;28;24422;-45
2022/07/26 13:52:14;;;;;;;1.80;1.70;;;;;;;;;;5094205;28;24422;-45
2022/07/26 13:54:39;;;;;;;2.38;1.80;;;;;;;;;;5086269;28;24433;-46
2022/07/26 13:57:06;;;;;;;2.10;1.90;;;;;;;;;;5089867;28;24769;-45
2022/07/26 13:59:31;;;;;;;2.38;1.70;;;;;;;;;;5089544;28;24398;-45
2022/07/26 14:01:57;;;;;;;2.20;1.90;;;;;;;;;;5089334;27;24547;-44
2022/07/26 14:04:22;;;;;;;2.90;1.87;;;;;;;;;;5095938;28;24421;-46
2022/07/26 14:06:48;;;;;;;2.20;2.00;;;;;;;;;;5110030;28;24408;-45
2022/07/26 14:09:13;;;;;;;2.30;2.10;;;;;;;;;;5109940;28;25018;-45
2022/07/26 14:11:38;;;;;;;2.80;2.00;;;;;;;;;;5105916;28;24421;-45
2022/07/26 14:14:04;;;;;;;2.30;2.00;;;;;;;;;;5089688;28;24951;-46
2022/07/26 14:16:29;;;;;;;2.17;2.00;;;;;;;;;;5095986;28;25247;-46
2022/07/26 14:18:56;;;;;;;2.00;1.90;;;;;;;;;;5096999;28;24559;-45
2022/07/26 14:21:22;;;;;;;2.10;2.00;;;;;;;;;;5098592;28;24483;-45
2022/07/26 14:23:48;;;;;;;2.40;2.20;;;;;;;;;;5092215;28;25261;-45
2022/07/26 14:26:13;;;;;;;2.10;1.90;;;;;;;;;;5095486;28;24421;-45
2022/07/26 14:28:38;;;;;;;1.80;1.70;;;;;;;;;;5109328;28;24479;-45
2022/07/26 14:31:03;;;;;;;2.00;1.80;;;;;;;;;;5091036;28;24440;-46
2022/07/26 14:33:29;;;;;;;2.17;1.97;;;;;;;;;;5094944;28;25144;-46